createdAt,value
2023-02-06T00:00:09.742Z,101899.88
2023-02-06T00:02:38.765Z,101919.84
2023-02-06T00:05:08.429Z,101898.06
2023-02-06T00:07:37.346Z,101916.34
2023-02-06T00:10:06.923Z,101928.66
2023-02-06T00:12:38.214Z,101877.94
2023-02-06T00:15:07.685Z,101929.97
2023-02-06T00:17:37.161Z,101907.53
2023-02-06T00:20:07.538Z,101906.56
2023-02-06T00:22:36.987Z,101918.06
2023-02-06T00:25:07.037Z,101936.41
2023-02-06T00:27:37.587Z,101933.84
2023-02-06T00:30:07.556Z,101908.41
2023-02-06T00:32:36.999Z,101892.94
2023-02-06T00:35:06.878Z,101935.53
2023-02-06T00:37:35.878Z,101924.19
2023-02-06T00:40:05.061Z,101883.31
2023-02-06T00:42:34.572Z,101918.00
2023-02-06T00:45:05.344Z,101879.06
2023-02-06T00:47:35.590Z,101925.72
2023-02-06T00:50:05.412Z,101890.94
2023-02-06T00:52:34.738Z,101877.94
2023-02-06T00:55:03.693Z,101923.94
2023-02-06T00:57:32.711Z,101921.31
2023-02-06T01:00:01.616Z,101923.94
2023-02-06T01:02:32.719Z,101924.78
2023-02-06T01:05:02.109Z,101927.41
2023-02-06T01:07:31.785Z,101847.28
2023-02-06T01:10:01.081Z,101933.81
2023-02-06T01:12:30.070Z,101897.09
2023-02-06T01:14:59.533Z,101930.22
2023-02-06T01:17:28.844Z,101908.28
2023-02-06T01:19:59.573Z,101916.09
2023-02-06T01:22:29.330Z,101920.41
2023-02-06T01:24:58.692Z,101919.38
2023-02-06T01:27:27.647Z,101921.16
2023-02-06T01:29:56.619Z,101915.13
2023-02-06T01:32:25.910Z,101912.66
2023-02-06T01:34:54.877Z,101915.91
2023-02-06T01:37:25.349Z,101925.41
2023-02-06T01:39:54.353Z,101919.56
2023-02-06T01:42:24.383Z,101903.63
2023-02-06T01:45:26.611Z,101934.91
2023-02-06T01:48:00.451Z,101928.78
2023-02-06T01:50:29.638Z,101933.28
2023-02-06T01:53:00.654Z,101933.47
2023-02-06T01:55:29.643Z,101935.41
2023-02-06T01:58:01.696Z,101928.31
2023-02-06T02:00:31.356Z,101949.50
2023-02-06T02:03:00.425Z,101928.22
2023-02-06T02:05:29.399Z,101931.00
2023-02-06T02:08:07.578Z,101947.81
2023-02-06T02:10:37.595Z,101949.25
2023-02-06T02:13:08.809Z,101926.97
2023-02-06T02:15:47.087Z,101950.22
2023-02-06T02:18:29.796Z,101959.03
2023-02-06T02:21:46.311Z,101957.06
2023-02-06T02:24:24.670Z,101952.94
2023-02-06T02:27:27.974Z,101960.69
2023-02-06T02:30:46.420Z,101956.97
2023-02-06T02:34:00.945Z,101956.13
2023-02-06T02:36:37.314Z,101896.97
2023-02-06T02:39:16.097Z,101965.97
2023-02-06T02:41:52.004Z,101969.16
2023-02-06T02:44:30.793Z,101956.84
2023-02-06T02:47:04.931Z,101964.16
2023-02-06T02:49:37.921Z,101968.50
2023-02-06T02:52:08.529Z,101962.41
2023-02-06T02:54:37.796Z,101969.09
2023-02-06T02:57:10.927Z,101963.72
2023-02-06T02:59:44.822Z,101969.09
2023-02-06T03:02:15.717Z,101968.22
2023-02-06T03:04:51.467Z,101977.31
2023-02-06T03:07:33.523Z,101973.63
2023-02-06T03:10:11.642Z,101966.78
2023-02-06T03:12:47.348Z,101972.81
2023-02-06T03:15:26.315Z,101975.56
2023-02-06T03:18:01.011Z,101972.75
2023-02-06T03:20:33.159Z,101986.00
2023-02-06T03:23:05.159Z,101871.94
2023-02-06T03:25:37.403Z,101982.28
2023-02-06T03:28:08.748Z,101970.38
2023-02-06T03:30:40.075Z,101967.50
2023-02-06T03:33:12.104Z,101983.50
2023-02-06T03:35:41.725Z,101991.16
2023-02-06T03:38:12.233Z,101984.22
2023-02-06T03:40:45.199Z,101988.81
2023-02-06T03:43:18.873Z,101984.69
2023-02-06T03:45:49.732Z,101989.19
2023-02-06T03:48:24.702Z,101896.00
2023-02-06T03:50:56.783Z,101970.63
2023-02-06T03:53:28.013Z,101984.59
2023-02-06T03:56:02.230Z,101998.72
2023-02-06T03:58:32.129Z,101982.03
2023-02-06T04:01:02.202Z,102004.84
2023-02-06T04:03:32.014Z,101994.06
2023-02-06T04:06:02.006Z,101978.66
2023-02-06T04:08:32.509Z,101966.41
2023-02-06T04:11:01.603Z,101989.94
2023-02-06T04:13:30.681Z,102006.41
2023-02-06T04:15:59.672Z,101996.81
2023-02-06T04:18:28.685Z,102000.47
2023-02-06T04:20:57.699Z,102000.28
2023-02-06T04:23:26.951Z,102010.22
2023-02-06T04:25:57.313Z,102003.63
2023-02-06T04:28:26.249Z,102010.78
2023-02-06T04:30:55.544Z,102019.56
2023-02-06T04:33:24.544Z,102021.19
2023-02-06T04:35:53.815Z,102020.41
2023-02-06T04:38:22.858Z,102012.69
2023-02-06T04:40:51.879Z,101998.72
2023-02-06T04:43:22.430Z,102009.00
2023-02-06T04:45:51.550Z,102013.38
2023-02-06T04:48:20.860Z,101993.38
2023-02-06T04:50:50.788Z,102022.88
2023-02-06T04:53:20.395Z,102028.28
2023-02-06T04:55:49.706Z,102037.06
2023-02-06T04:58:18.935Z,101995.91
2023-02-06T05:00:50.471Z,102015.31
2023-02-06T05:03:19.411Z,102022.22
2023-02-06T05:05:48.466Z,102029.97
2023-02-06T05:08:18.100Z,102014.34
2023-02-06T05:10:47.312Z,102017.91
2023-02-06T05:13:16.635Z,101996.88
2023-02-06T05:15:46.553Z,102024.53
2023-02-06T05:18:17.211Z,102000.47
2023-02-06T05:20:46.694Z,102040.69
2023-02-06T05:23:15.923Z,102055.28
2023-02-06T05:25:45.378Z,102046.56
2023-02-06T05:28:15.106Z,101974.91
2023-02-06T05:30:44.901Z,102047.66
2023-02-06T05:33:13.835Z,102043.00
2023-02-06T05:35:44.194Z,101997.75
2023-02-06T05:38:13.326Z,102043.00
2023-02-06T05:40:42.453Z,102041.44
2023-02-06T05:43:11.662Z,102018.81
2023-02-06T05:45:41.111Z,102030.19
2023-02-06T05:48:10.286Z,102051.19
2023-02-06T05:50:39.561Z,102054.56
2023-02-06T05:53:18.920Z,102037.94
2023-02-06T05:55:48.383Z,102059.00
2023-02-06T05:58:18.873Z,101999.63
2023-02-06T06:00:47.820Z,102045.75
2023-02-06T06:03:16.718Z,102058.16
2023-02-06T06:05:46.483Z,102033.44
2023-02-06T06:08:15.969Z,102028.34
2023-02-06T06:10:46.337Z,102026.00
2023-02-06T06:13:15.637Z,102045.16
2023-02-06T06:15:45.184Z,102042.03
2023-02-06T06:18:14.543Z,102048.25
2023-02-06T06:20:43.639Z,102055.06
2023-02-06T06:23:12.959Z,102045.56
2023-02-06T06:25:42.158Z,102031.03
2023-02-06T06:28:13.362Z,102053.66
2023-02-06T06:30:42.621Z,102004.53
2023-02-06T06:33:12.091Z,102030.75
2023-02-06T06:35:42.337Z,102049.22
2023-02-06T06:38:12.506Z,102050.75
2023-02-06T06:40:45.563Z,102018.47
2023-02-06T06:43:16.087Z,102052.75
2023-02-06T06:45:45.361Z,102047.78
2023-02-06T06:48:14.372Z,102057.31
2023-02-06T06:50:43.881Z,102046.78
2023-02-06T06:53:12.870Z,102060.69
2023-02-06T06:55:42.197Z,102058.34
2023-02-06T06:58:17.875Z,102074.72
2023-02-06T07:00:48.314Z,102040.97
2023-02-06T07:03:17.341Z,102062.16
2023-02-06T07:05:47.440Z,102061.00
2023-02-06T07:08:16.515Z,102055.34
2023-02-06T07:10:45.824Z,102056.19
2023-02-06T07:13:15.582Z,102078.47
2023-02-06T07:15:45.012Z,102053.34
2023-02-06T07:18:15.448Z,102089.63
2023-02-06T07:20:45.005Z,102033.22
2023-02-06T07:23:14.419Z,102027.19
2023-02-06T07:25:44.241Z,102080.22
2023-02-06T07:28:13.363Z,102099.22
2023-02-06T07:30:42.923Z,102091.47
2023-02-06T07:33:12.168Z,102038.28
2023-02-06T07:35:43.978Z,102093.63
2023-02-06T07:38:13.319Z,102092.41
2023-02-06T07:40:45.331Z,102099.13
2023-02-06T07:43:15.776Z,102089.66
2023-02-06T07:45:45.944Z,102095.72
2023-02-06T07:48:15.183Z,102102.81
2023-02-06T07:50:46.737Z,102103.78
2023-02-06T07:53:15.930Z,102095.19
2023-02-06T07:55:45.673Z,102021.41
2023-02-06T07:58:14.780Z,102067.59
2023-02-06T08:00:45.860Z,102048.91
2023-02-06T08:03:15.579Z,102104.56
2023-02-06T08:05:46.051Z,102100.78
2023-02-06T08:08:15.238Z,102054.41
2023-02-06T08:10:44.348Z,102091.63
2023-02-06T08:13:14.648Z,102099.13
2023-02-06T08:15:45.082Z,101885.53
2023-02-06T08:18:14.364Z,102104.56
2023-02-06T08:20:43.661Z,102108.56
2023-02-06T08:23:14.237Z,102093.59
2023-02-06T08:25:44.046Z,102077.03
2023-02-06T08:28:17.186Z,102105.28
2023-02-06T08:30:47.208Z,102118.16
2023-02-06T08:33:16.827Z,102085.66
2023-02-06T08:35:45.959Z,102114.94
2023-02-06T08:38:16.760Z,102108.63
2023-02-06T08:40:46.052Z,102125.31
2023-02-06T08:43:15.563Z,102128.50
2023-02-06T08:45:48.891Z,102134.66
2023-02-06T08:48:18.465Z,102113.91
2023-02-06T08:50:50.243Z,102100.78
2023-02-06T08:53:20.904Z,102113.63
2023-02-06T08:55:49.992Z,102098.22
2023-02-06T08:58:19.994Z,102103.25
2023-02-06T09:00:48.927Z,102124.09
2023-02-06T09:03:18.503Z,102124.81
2023-02-06T09:05:47.494Z,102111.97
2023-02-06T09:08:16.597Z,102124.97
2023-02-06T09:10:47.376Z,102121.13
2023-02-06T09:13:16.907Z,102124.69
2023-02-06T09:15:52.923Z,102111.03
2023-02-06T09:18:22.284Z,102134.03
2023-02-06T09:20:51.440Z,102133.44
2023-02-06T09:23:21.112Z,102097.78
2023-02-06T09:25:52.011Z,102131.16
2023-02-06T09:28:21.265Z,102063.78
2023-02-06T09:30:50.671Z,102126.81
2023-02-06T09:33:48.854Z,102128.34
2023-02-06T09:36:19.604Z,102110.03
2023-02-06T09:38:50.329Z,102135.06
2023-02-06T09:41:29.031Z,102134.44
2023-02-06T09:44:04.285Z,102125.75
2023-02-06T09:46:37.137Z,102106.34
2023-02-06T09:49:13.847Z,102118.06
2023-02-06T09:51:57.631Z,102089.25
2023-02-06T09:54:37.442Z,102072.78
2023-02-06T09:57:12.554Z,102128.22
2023-02-06T09:59:47.800Z,102107.03
2023-02-06T10:02:36.056Z,102083.44
2023-02-06T10:05:13.611Z,102084.25
2023-02-06T10:08:01.729Z,102122.41
2023-02-06T10:10:38.492Z,102011.03
2023-02-06T10:13:17.401Z,102124.03
2023-02-06T10:15:49.907Z,101932.72
2023-02-06T10:18:28.960Z,102118.78
2023-02-06T10:21:03.688Z,102112.66
2023-02-06T10:23:40.757Z,102101.13
2023-02-06T10:26:17.340Z,102111.38
2023-02-06T10:28:51.099Z,102104.94
2023-02-06T10:31:45.116Z,102081.22
2023-02-06T10:34:32.149Z,102071.50
2023-02-06T10:37:15.943Z,102064.91
2023-02-06T10:40:09.681Z,102084.84
2023-02-06T10:42:48.033Z,102088.41
2023-02-06T10:45:33.060Z,102043.56
2023-02-06T10:48:10.473Z,102088.50
2023-02-06T10:50:45.620Z,102064.31
2023-02-06T10:53:24.542Z,102095.59
2023-02-06T10:55:56.686Z,102095.13
2023-02-06T10:58:28.542Z,102095.63
2023-02-06T11:01:00.589Z,102085.16
2023-02-06T11:03:32.398Z,102072.88
2023-02-06T11:06:03.950Z,102080.38
2023-02-06T11:08:38.167Z,102076.72
2023-02-06T11:11:20.511Z,102085.38
2023-02-06T11:13:53.898Z,102077.47
2023-02-06T11:16:27.684Z,102095.16
2023-02-06T11:18:57.549Z,102097.22
2023-02-06T11:21:51.064Z,102095.63
2023-02-06T11:24:24.558Z,102102.47
2023-02-06T11:26:57.459Z,102091.91
2023-02-06T11:29:31.830Z,102079.41
2023-02-06T11:32:04.550Z,102090.47
2023-02-06T11:34:35.821Z,102086.44
2023-02-06T11:37:07.106Z,102084.16
2023-02-06T11:39:38.000Z,102088.59
2023-02-06T11:42:21.460Z,102082.31
2023-02-06T11:44:52.237Z,102070.19
2023-02-06T11:47:31.398Z,102071.41
2023-02-06T11:50:23.591Z,102091.34
2023-02-06T11:52:58.792Z,102075.53
2023-02-06T11:55:30.080Z,102075.00
2023-02-06T11:58:05.787Z,102059.84
2023-02-06T12:00:38.247Z,102054.09
2023-02-06T12:03:43.734Z,102035.50
2023-02-06T12:06:17.226Z,102074.16
2023-02-06T12:08:50.036Z,102068.81
2023-02-06T12:11:26.977Z,102010.16
2023-02-06T12:13:59.499Z,102063.22
2023-02-06T12:16:30.286Z,102072.66
2023-02-06T12:19:04.447Z,102062.56
2023-02-06T12:21:44.813Z,101818.69
2023-02-06T12:24:28.191Z,102077.28
2023-02-06T12:27:01.853Z,102051.56
2023-02-06T12:29:36.826Z,102069.25
2023-02-06T12:32:15.157Z,102074.78
2023-02-06T12:34:56.189Z,102060.09
2023-02-06T12:37:37.914Z,102089.06
2023-02-06T12:40:15.017Z,101989.41
2023-02-06T12:42:48.651Z,102078.72
2023-02-06T12:45:32.537Z,102082.41
2023-02-06T12:48:10.084Z,101953.78
2023-02-06T12:50:56.543Z,102079.16
2023-02-06T12:53:31.721Z,102041.56
2023-02-06T12:56:05.508Z,102044.63
2023-02-06T12:58:53.662Z,102072.84
2023-02-06T13:01:34.755Z,102060.41
2023-02-06T13:04:06.797Z,102070.38
2023-02-06T13:06:45.784Z,102071.38
2023-02-06T13:09:22.681Z,102055.66
2023-02-06T13:11:52.523Z,102061.63
2023-02-06T13:14:25.233Z,102066.34
2023-02-06T13:16:58.309Z,102010.81
2023-02-06T13:19:31.381Z,102063.00
2023-02-06T13:22:24.532Z,102058.50
2023-02-06T13:24:53.742Z,102062.19
2023-02-06T13:27:25.928Z,102042.00
2023-02-06T13:29:55.693Z,102061.13
2023-02-06T13:32:43.274Z,101836.91
2023-02-06T13:35:22.173Z,102017.53
2023-02-06T13:38:12.527Z,102044.13
2023-02-06T13:40:42.592Z,102071.47
2023-02-06T13:43:18.732Z,102013.59
2023-02-06T13:45:54.567Z,102076.50
2023-02-06T13:48:52.281Z,102060.34
2023-02-06T13:51:50.523Z,102070.09
2023-02-06T13:54:55.545Z,101985.38
2023-02-06T13:57:36.047Z,102050.41
2023-02-06T14:00:13.438Z,102045.22
2023-02-06T14:02:46.714Z,102049.25
2023-02-06T14:05:20.703Z,102050.94
2023-02-06T14:08:09.027Z,102077.34
2023-02-06T14:11:00.174Z,102070.09
2023-02-06T14:13:47.159Z,102073.41
2023-02-06T14:16:33.661Z,102076.09
2023-02-06T14:19:06.060Z,101776.72
2023-02-06T14:21:46.908Z,101931.69
2023-02-06T14:24:38.357Z,102097.81
2023-02-06T14:27:23.804Z,102076.34
2023-02-06T14:29:58.962Z,102080.75
2023-02-06T14:33:15.385Z,102085.06
2023-02-06T14:36:05.361Z,101986.75
2023-02-06T14:39:11.780Z,102086.88
2023-02-06T14:41:41.345Z,102095.59
2023-02-06T14:44:16.964Z,102092.16
2023-02-06T14:46:47.110Z,102115.84
2023-02-06T14:49:20.071Z,102112.41
2023-02-06T14:51:52.458Z,102091.47
2023-02-06T14:54:34.215Z,102099.25
2023-02-06T14:57:06.002Z,102084.44
2023-02-06T14:59:36.943Z,102113.19
2023-02-06T15:02:15.313Z,102064.38
2023-02-06T15:04:49.048Z,102123.75
2023-02-06T15:07:25.128Z,102081.03
2023-02-06T15:10:00.736Z,102068.78
2023-02-06T15:12:32.284Z,102129.94
2023-02-06T15:15:16.328Z,102131.66
2023-02-06T15:17:45.390Z,102133.44
2023-02-06T15:20:28.985Z,102101.19
2023-02-06T15:23:16.632Z,102147.31
2023-02-06T15:26:05.252Z,102150.06
2023-02-06T15:28:38.127Z,102131.72
2023-02-06T15:31:18.733Z,102136.03
2023-02-06T15:33:51.478Z,102125.63
2023-02-06T15:36:30.079Z,102150.94
2023-02-06T15:39:00.573Z,102104.69
2023-02-06T15:41:31.685Z,102156.06
2023-02-06T15:44:04.278Z,102157.03
2023-02-06T15:46:35.245Z,102145.63
2023-02-06T15:49:04.550Z,102140.28
2023-02-06T15:51:42.607Z,102152.53
2023-02-06T15:54:27.338Z,102152.59
2023-02-06T15:57:02.719Z,102129.13
2023-02-06T15:59:35.666Z,102149.13
2023-02-06T16:02:06.911Z,102129.91
2023-02-06T16:04:39.714Z,102164.88
2023-02-06T16:07:17.662Z,102157.94
2023-02-06T16:10:10.821Z,102105.56
2023-02-06T16:12:42.331Z,102157.06
2023-02-06T16:15:27.591Z,102154.41
2023-02-06T16:18:17.093Z,102148.28
2023-02-06T16:20:47.736Z,102128.22
2023-02-06T16:23:23.400Z,102145.66
2023-02-06T16:26:03.299Z,102135.16
2023-02-06T16:28:32.598Z,102143.81
2023-02-06T16:31:04.743Z,102145.69
2023-02-06T16:33:39.237Z,102142.16
2023-02-06T16:36:10.582Z,102136.94
2023-02-06T16:38:40.095Z,102137.78
2023-02-06T16:41:25.948Z,102097.59
2023-02-06T16:43:55.973Z,102076.75
2023-02-06T16:46:26.123Z,102139.53
2023-02-06T16:48:57.611Z,102133.47
2023-02-06T16:51:32.131Z,102133.47
2023-02-06T16:54:02.704Z,102132.53
2023-02-06T16:56:33.156Z,102047.06
2023-02-06T16:59:02.980Z,102089.00
2023-02-06T17:01:33.038Z,102121.25
2023-02-06T17:04:04.466Z,102136.94
2023-02-06T17:07:20.108Z,102130.84
2023-02-06T17:10:05.462Z,102132.63
2023-02-06T17:12:36.369Z,101819.53
2023-02-06T17:15:10.093Z,102133.47
2023-02-06T17:17:41.590Z,102081.09
2023-02-06T17:20:27.587Z,102129.09
2023-02-06T17:22:59.745Z,102123.00
2023-02-06T17:25:30.264Z,102104.69
2023-02-06T17:28:02.579Z,102133.47
2023-02-06T17:30:32.796Z,102131.72
2023-02-06T17:33:07.284Z,102141.31
2023-02-06T17:35:41.219Z,102143.06
2023-02-06T17:38:12.062Z,102138.69
2023-02-06T17:40:43.713Z,102154.41
2023-02-06T17:43:13.033Z,102123.00
2023-02-06T17:45:42.919Z,102124.75
2023-02-06T17:48:26.306Z,102095.06
2023-02-06T17:50:58.960Z,102105.53
2023-02-06T17:53:28.176Z,102126.50
2023-02-06T17:55:57.612Z,102128.22
2023-02-06T17:58:28.034Z,102021.69
2023-02-06T18:00:57.081Z,102105.56
2023-02-06T18:03:29.614Z,102089.84
2023-02-06T18:06:02.306Z,102079.38
2023-02-06T18:08:32.654Z,102134.31
2023-02-06T18:11:03.549Z,102129.97
2023-02-06T18:13:35.064Z,102136.06
2023-02-06T18:16:04.412Z,102115.09
2023-02-06T18:18:33.604Z,102124.69
2023-02-06T18:21:04.309Z,102130.84
2023-02-06T18:23:34.198Z,102140.41
2023-02-06T18:26:04.478Z,102150.88
2023-02-06T18:28:36.234Z,102131.56
2023-02-06T18:31:07.529Z,102149.91
2023-02-06T18:33:37.703Z,102145.63
2023-02-06T18:36:09.783Z,102133.38
2023-02-06T18:38:40.632Z,102154.34
2023-02-06T18:41:30.990Z,102074.84
2023-02-06T18:44:01.088Z,102150.81
2023-02-06T18:46:33.321Z,102158.63
2023-02-06T18:49:03.390Z,102159.47
2023-02-06T18:51:34.515Z,102162.94
2023-02-06T18:54:04.860Z,102115.66
2023-02-06T18:56:36.170Z,102143.78
2023-02-06T18:59:40.818Z,102166.50
2023-02-06T19:02:16.677Z,102123.69
2023-02-06T19:04:47.215Z,102152.53
2023-02-06T19:07:18.885Z,102167.41
2023-02-06T19:09:48.440Z,102170.00
2023-02-06T19:12:17.880Z,102169.97
2023-02-06T19:14:47.192Z,102164.59
2023-02-06T19:17:16.933Z,102165.47
2023-02-06T19:19:46.626Z,102160.31
2023-02-06T19:22:17.687Z,102143.50
2023-02-06T19:24:47.081Z,102161.06
2023-02-06T19:27:16.099Z,102157.50
2023-02-06T19:29:45.540Z,102152.38
2023-02-06T19:32:15.169Z,102156.72
2023-02-06T19:34:45.355Z,102127.97
2023-02-06T19:37:14.819Z,102147.13
2023-02-06T19:39:46.059Z,102128.00
2023-02-06T19:42:17.254Z,102145.75
2023-02-06T19:44:46.840Z,102132.28
2023-02-06T19:47:15.953Z,102121.72
2023-02-06T19:49:45.364Z,102132.28
2023-02-06T19:52:15.000Z,102128.09
2023-02-06T19:54:48.020Z,102131.41
2023-02-06T19:57:19.427Z,102130.69
2023-02-06T19:59:49.451Z,102060.72
2023-02-06T20:02:19.779Z,102131.25
2023-02-06T20:04:49.349Z,102133.25
2023-02-06T20:07:19.224Z,102127.97
2023-02-06T20:09:51.244Z,102132.50
2023-02-06T20:12:20.744Z,102115.84
2023-02-06T20:14:49.946Z,102089.56
2023-02-06T20:17:19.543Z,102125.47
2023-02-06T20:19:48.979Z,102124.63
2023-02-06T20:22:17.949Z,102102.00
2023-02-06T20:24:47.415Z,102060.97
2023-02-06T20:27:18.060Z,102103.75
2023-02-06T20:29:48.176Z,102128.09
2023-02-06T20:32:19.535Z,102091.50
2023-02-06T20:34:49.424Z,102117.75
2023-02-06T20:37:19.102Z,102119.50
2023-02-06T20:39:49.238Z,102068.84
2023-02-06T20:42:22.698Z,102115.91
2023-02-06T20:44:52.960Z,102068.81
2023-02-06T20:47:22.619Z,102109.84
2023-02-06T20:49:52.495Z,102054.06
2023-02-06T20:52:21.898Z,102074.94
2023-02-06T20:54:51.059Z,102062.47
2023-02-06T20:57:23.150Z,102107.25
2023-02-06T20:59:52.772Z,102111.63
2023-02-06T21:02:22.460Z,102120.34
2023-02-06T21:04:52.456Z,102084.50
2023-02-06T21:07:22.122Z,102107.28
2023-02-06T21:09:52.447Z,101983.34
2023-02-06T21:12:22.858Z,102115.97
2023-02-06T21:14:52.541Z,102112.44
2023-02-06T21:17:21.786Z,102114.16
2023-02-06T21:19:51.239Z,102093.28
2023-02-06T21:22:20.524Z,102082.63
2023-02-06T21:24:49.991Z,102108.91
2023-02-06T21:27:19.604Z,102107.25
2023-02-06T21:29:50.299Z,102088.88
2023-02-06T21:32:19.878Z,102108.97
2023-02-06T21:34:49.250Z,102106.31
2023-02-06T21:37:18.607Z,102061.88
2023-02-06T21:39:47.971Z,102103.75
2023-02-06T21:42:20.536Z,102101.16
2023-02-06T21:44:50.972Z,102097.66
2023-02-06T21:47:20.141Z,102098.44
2023-02-06T21:49:49.558Z,102094.94
2023-02-06T21:52:18.962Z,102088.91
2023-02-06T21:54:48.085Z,102082.00
2023-02-06T21:57:17.295Z,102067.03
2023-02-06T21:59:46.786Z,102082.72
2023-02-06T22:02:17.429Z,102062.69
2023-02-06T22:04:47.123Z,102058.41
2023-02-06T22:07:16.126Z,102027.84
2023-02-06T22:09:45.256Z,102058.41
2023-02-06T22:12:14.460Z,102072.34
2023-02-06T22:14:43.719Z,102075.81
2023-02-06T22:17:12.899Z,102061.63
2023-02-06T22:19:43.787Z,102075.81
2023-02-06T22:22:13.669Z,102074.91
2023-02-06T22:24:44.291Z,102055.75
2023-02-06T22:27:13.720Z,102065.41
2023-02-06T22:29:43.124Z,102066.22
2023-02-06T22:32:12.334Z,102005.13
2023-02-06T22:34:41.585Z,102072.19
2023-02-06T22:37:12.262Z,102033.75
2023-02-06T22:39:41.403Z,102049.59
2023-02-06T22:42:10.391Z,102050.41
